createdAt,value
2023-03-06T00:02:06.358Z,5.90
2023-03-06T00:04:33.635Z,6.00
2023-03-06T00:07:01.068Z,5.63
2023-03-06T00:09:28.294Z,5.00
2023-03-06T00:11:55.552Z,5.30
2023-03-06T00:14:22.826Z,5.10
2023-03-06T00:16:53.424Z,5.73
2023-03-06T00:19:20.608Z,5.63
2023-03-06T00:21:47.875Z,5.73
2023-03-06T00:24:15.274Z,5.90
2023-03-06T00:26:43.226Z,6.10
2023-03-06T00:29:10.839Z,5.30
2023-03-06T00:31:38.241Z,5.83
2023-03-06T00:34:05.562Z,6.80
2023-03-06T00:36:32.887Z,6.97
2023-03-06T00:39:00.143Z,6.23
2023-03-06T00:41:27.431Z,6.60
2023-03-06T00:43:54.676Z,5.83
2023-03-06T00:46:22.011Z,5.90
2023-03-06T00:48:49.245Z,6.00
2023-03-06T00:51:19.256Z,6.13
2023-03-06T00:53:46.536Z,6.53
2023-03-06T00:56:13.966Z,6.37
2023-03-06T00:58:42.199Z,6.83
2023-03-06T01:01:09.516Z,6.43
2023-03-06T01:03:36.859Z,6.23
2023-03-06T01:06:04.346Z,7.80
2023-03-06T01:08:31.527Z,6.30
2023-03-06T01:10:58.828Z,7.23
2023-03-06T01:13:26.143Z,6.63
2023-03-06T01:15:53.464Z,7.60
2023-03-06T01:18:21.938Z,7.00
2023-03-06T01:20:49.264Z,6.83
2023-03-06T01:23:16.497Z,6.50
2023-03-06T01:25:43.780Z,5.83
2023-03-06T01:28:11.439Z,7.27
2023-03-06T01:30:38.673Z,6.47
2023-03-06T01:33:06.094Z,7.30
2023-03-06T01:35:33.388Z,6.87
2023-03-06T01:38:00.615Z,6.30
2023-03-06T01:40:30.550Z,8.10
2023-03-06T01:42:57.859Z,8.27
2023-03-06T01:45:25.222Z,7.60
2023-03-06T01:47:52.541Z,7.30
2023-03-06T01:50:19.793Z,7.50
2023-03-06T01:52:58.047Z,8.40
2023-03-06T01:55:30.756Z,9.57
2023-03-06T01:58:01.198Z,8.33
2023-03-06T02:00:29.474Z,9.10
2023-03-06T02:03:06.718Z,8.50
2023-03-06T02:05:34.246Z,8.33
2023-03-06T02:08:03.754Z,9.13
2023-03-06T02:10:31.109Z,9.40
2023-03-06T02:12:58.911Z,10.50
2023-03-06T02:15:29.099Z,9.90
2023-03-06T02:17:56.728Z,9.47
2023-03-06T02:20:53.397Z,11.10
2023-03-06T02:23:30.714Z,9.80
2023-03-06T02:26:00.908Z,10.30
2023-03-06T02:28:28.551Z,9.83
2023-03-06T02:30:56.755Z,10.63
2023-03-06T02:33:27.717Z,10.10
2023-03-06T02:36:04.293Z,11.40
2023-03-06T02:38:40.266Z,10.87
2023-03-06T02:41:09.456Z,10.30
2023-03-06T02:43:38.734Z,12.57
2023-03-06T02:46:06.941Z,11.53
2023-03-06T02:48:34.301Z,11.63
2023-03-06T02:51:01.571Z,12.07
2023-03-06T02:53:28.787Z,12.57
2023-03-06T02:55:56.002Z,12.33
2023-03-06T02:58:23.396Z,12.07
2023-03-06T03:00:50.870Z,12.73
2023-03-06T03:03:19.578Z,12.53
2023-03-06T03:05:46.870Z,13.20
2023-03-06T03:08:24.606Z,13.70
2023-03-06T03:10:57.056Z,13.30
2023-03-06T03:13:25.748Z,12.67
2023-03-06T03:16:05.203Z,12.20
2023-03-06T03:18:33.276Z,14.50
2023-03-06T03:21:00.717Z,13.87
2023-03-06T03:23:28.622Z,13.37
2023-03-06T03:26:19.596Z,12.83
2023-03-06T03:28:56.790Z,13.83
2023-03-06T03:31:24.117Z,14.00
2023-03-06T03:33:51.460Z,14.07
2023-03-06T03:36:20.360Z,14.17
2023-03-06T03:38:48.272Z,12.50
2023-03-06T03:41:15.683Z,14.70
2023-03-06T03:43:43.340Z,13.73
2023-03-06T03:46:11.445Z,14.77
2023-03-06T03:48:39.260Z,13.30
2023-03-06T03:51:12.915Z,14.60
2023-03-06T03:53:44.900Z,13.13
2023-03-06T03:56:14.562Z,13.73
2023-03-06T03:58:53.885Z,15.77
2023-03-06T04:01:22.108Z,14.10
2023-03-06T04:03:49.884Z,14.63
2023-03-06T04:06:18.129Z,14.10
2023-03-06T04:08:46.095Z,15.33
2023-03-06T04:11:13.957Z,14.37
2023-03-06T04:13:42.090Z,13.67
2023-03-06T04:16:09.618Z,14.00
2023-03-06T04:18:38.699Z,14.80
2023-03-06T04:21:07.080Z,14.47
2023-03-06T04:23:34.423Z,14.90
2023-03-06T04:26:01.900Z,14.60
2023-03-06T04:28:29.425Z,15.17
2023-03-06T04:30:57.901Z,15.30
2023-03-06T04:33:25.668Z,15.33
2023-03-06T04:35:54.189Z,16.47
2023-03-06T04:38:26.005Z,15.27
2023-03-06T04:40:53.605Z,15.17
2023-03-06T04:43:21.095Z,14.83
2023-03-06T04:45:48.563Z,15.80
2023-03-06T04:48:18.166Z,15.63
2023-03-06T04:50:45.525Z,14.93
2023-03-06T04:53:14.457Z,16.63
2023-03-06T04:55:41.799Z,15.23
2023-03-06T04:58:11.697Z,13.97
2023-03-06T05:00:39.025Z,14.53
2023-03-06T05:03:06.376Z,14.67
2023-03-06T05:05:33.697Z,15.53
2023-03-06T05:08:00.926Z,16.17
2023-03-06T05:10:29.166Z,15.90
2023-03-06T05:12:56.392Z,17.07
2023-03-06T05:15:24.161Z,16.73
2023-03-06T05:17:51.482Z,15.23
2023-03-06T05:20:18.920Z,17.90
2023-03-06T05:22:46.225Z,17.33
2023-03-06T05:25:13.526Z,16.10
2023-03-06T05:27:41.245Z,15.33
2023-03-06T05:30:12.452Z,16.03
2023-03-06T05:32:39.918Z,16.27
2023-03-06T05:35:07.538Z,15.30
2023-03-06T05:37:35.029Z,16.37
2023-03-06T05:40:06.199Z,14.87
2023-03-06T05:42:33.532Z,15.77
2023-03-06T05:45:02.557Z,16.77
2023-03-06T05:47:30.380Z,15.70
2023-03-06T05:49:57.660Z,16.33
2023-03-06T05:52:25.264Z,17.17
2023-03-06T05:54:54.486Z,16.10
2023-03-06T05:57:23.996Z,18.97
2023-03-06T05:59:51.314Z,16.43
2023-03-06T06:02:19.449Z,17.03
2023-03-06T06:04:46.841Z,15.60
2023-03-06T06:07:16.249Z,16.07
2023-03-06T06:09:45.433Z,16.10
2023-03-06T06:12:13.586Z,16.10
2023-03-06T06:14:40.964Z,16.90
2023-03-06T06:17:08.321Z,15.67
2023-03-06T06:19:35.744Z,16.70
2023-03-06T06:22:03.816Z,15.40
2023-03-06T06:24:31.671Z,16.10
2023-03-06T06:27:02.589Z,16.10
2023-03-06T06:29:31.368Z,15.60
2023-03-06T06:31:58.831Z,14.43
2023-03-06T06:34:26.668Z,16.17
2023-03-06T06:36:54.492Z,16.67
2023-03-06T06:39:23.282Z,16.47
2023-03-06T06:42:09.605Z,15.70
2023-03-06T06:44:40.110Z,16.20
2023-03-06T06:47:25.193Z,17.00
2023-03-06T06:49:54.254Z,15.50
2023-03-06T06:52:22.714Z,16.27
2023-03-06T06:54:51.312Z,16.43
2023-03-06T06:57:18.738Z,14.83
2023-03-06T06:59:46.066Z,15.13
2023-03-06T07:02:14.744Z,15.23
2023-03-06T07:05:00.309Z,15.13
2023-03-06T07:07:30.979Z,15.17
2023-03-06T07:09:58.259Z,15.40
2023-03-06T07:12:25.487Z,13.67
2023-03-06T07:14:52.681Z,15.77
2023-03-06T07:17:20.270Z,14.70
2023-03-06T07:19:48.168Z,15.10
2023-03-06T07:22:15.628Z,14.10
2023-03-06T07:24:43.031Z,15.17
2023-03-06T07:27:10.383Z,14.13
2023-03-06T07:29:37.726Z,14.53
2023-03-06T07:32:05.156Z,16.27
2023-03-06T07:34:32.496Z,16.10
2023-03-06T07:36:59.823Z,14.33
2023-03-06T07:39:28.083Z,14.07
2023-03-06T07:41:55.576Z,15.30
2023-03-06T07:44:22.954Z,15.20
2023-03-06T07:46:50.450Z,15.17
2023-03-06T07:49:17.878Z,16.03
2023-03-06T07:51:45.238Z,14.20
2023-03-06T07:54:12.659Z,15.40
2023-03-06T07:56:39.929Z,15.40
2023-03-06T07:59:07.181Z,16.30
2023-03-06T08:01:36.307Z,15.47
2023-03-06T08:04:03.863Z,14.83
2023-03-06T08:06:32.167Z,15.20
2023-03-06T08:08:59.818Z,15.53
2023-03-06T08:11:29.896Z,15.27
2023-03-06T08:13:58.595Z,13.83
2023-03-06T08:16:28.956Z,17.03
2023-03-06T08:18:57.169Z,14.93
2023-03-06T08:21:27.272Z,15.30
2023-03-06T08:23:55.009Z,16.10
2023-03-06T08:26:26.679Z,17.57
2023-03-06T08:28:56.079Z,16.33
2023-03-06T08:31:38.926Z,16.47
2023-03-06T08:34:09.004Z,16.37
2023-03-06T08:36:36.545Z,17.47
2023-03-06T08:39:04.395Z,16.00
2023-03-06T08:41:32.234Z,16.03
2023-03-06T08:43:59.787Z,16.20
2023-03-06T08:46:29.320Z,16.10
2023-03-06T08:48:56.968Z,17.70
2023-03-06T08:51:25.346Z,15.23
2023-03-06T08:53:52.796Z,15.33
2023-03-06T08:56:29.478Z,15.83
2023-03-06T08:58:58.347Z,16.53
2023-03-06T09:01:28.940Z,16.10
2023-03-06T09:04:01.797Z,14.43
2023-03-06T09:06:32.108Z,15.87
2023-03-06T09:08:59.894Z,14.97
2023-03-06T09:11:28.077Z,15.73
2023-03-06T09:13:56.551Z,14.53
2023-03-06T09:16:24.344Z,15.00
2023-03-06T09:18:53.968Z,14.43
2023-03-06T09:21:22.938Z,13.27
2023-03-06T09:23:51.210Z,13.60
2023-03-06T09:26:18.952Z,13.87
2023-03-06T09:28:46.540Z,14.50
2023-03-06T09:31:19.113Z,14.37
2023-03-06T09:33:47.275Z,14.67
2023-03-06T09:36:21.262Z,13.57
2023-03-06T09:38:49.891Z,14.43
2023-03-06T09:41:40.550Z,14.93
2023-03-06T09:44:23.527Z,14.43
2023-03-06T09:47:21.918Z,13.33
2023-03-06T09:50:04.980Z,13.57
2023-03-06T09:53:00.835Z,14.57
2023-03-06T09:55:38.375Z,13.13
2023-03-06T09:58:20.051Z,13.67
2023-03-06T10:01:09.865Z,13.53
2023-03-06T10:04:04.187Z,13.73
2023-03-06T10:06:38.829Z,13.97
2023-03-06T10:09:39.478Z,13.30
2023-03-06T10:12:21.338Z,13.60
2023-03-06T10:15:06.728Z,14.23
2023-03-06T10:17:37.469Z,15.87
2023-03-06T10:20:19.067Z,14.97
2023-03-06T10:23:11.181Z,13.90
2023-03-06T10:25:57.105Z,14.17
2023-03-06T10:28:35.425Z,13.97
2023-03-06T10:31:25.929Z,13.80
2023-03-06T10:34:04.776Z,14.13
2023-03-06T10:36:31.993Z,12.93
2023-03-06T10:38:59.937Z,13.90
2023-03-06T10:41:31.987Z,12.30
2023-03-06T10:44:05.190Z,11.63
2023-03-06T10:46:47.473Z,12.40
2023-03-06T10:49:32.958Z,11.40
2023-03-06T10:52:09.321Z,12.53
2023-03-06T10:54:39.653Z,11.57
2023-03-06T10:57:30.447Z,11.43
2023-03-06T11:00:02.356Z,12.00
2023-03-06T11:02:38.562Z,11.93
2023-03-06T11:05:17.506Z,11.67
2023-03-06T11:07:59.502Z,10.90
2023-03-06T11:10:28.335Z,11.70
2023-03-06T11:13:00.216Z,11.43
2023-03-06T11:15:29.401Z,11.53
2023-03-06T11:18:01.653Z,11.70
2023-03-06T11:20:51.159Z,12.80
2023-03-06T11:23:34.933Z,12.87
2023-03-06T11:26:30.535Z,12.60
2023-03-06T11:29:18.566Z,12.43
2023-03-06T11:31:56.955Z,13.00
2023-03-06T11:34:41.328Z,13.23
2023-03-06T11:37:33.665Z,13.17
2023-03-06T11:40:32.198Z,10.83
2023-03-06T11:43:38.184Z,12.50
2023-03-06T11:46:28.219Z,12.30
2023-03-06T11:49:06.524Z,12.50
2023-03-06T11:51:41.167Z,12.40
2023-03-06T11:54:12.426Z,12.67
2023-03-06T11:57:02.159Z,12.03
2023-03-06T11:59:44.816Z,11.50
2023-03-06T12:02:54.336Z,9.53
2023-03-06T12:05:34.521Z,10.07
2023-03-06T12:08:12.674Z,10.90
2023-03-06T12:10:57.295Z,9.43
2023-03-06T12:14:06.175Z,10.53
2023-03-06T12:16:58.626Z,10.20
2023-03-06T12:19:39.043Z,12.60
2023-03-06T12:22:21.785Z,10.77
2023-03-06T12:25:07.561Z,11.20
2023-03-06T12:27:57.930Z,11.47
2023-03-06T12:30:47.933Z,10.67
2023-03-06T12:33:37.864Z,11.30
2023-03-06T12:36:19.971Z,11.83
2023-03-06T12:38:56.923Z,11.17
2023-03-06T12:41:53.917Z,9.70
2023-03-06T12:44:33.196Z,11.47
2023-03-06T12:47:04.937Z,9.70
2023-03-06T12:49:38.617Z,9.93
2023-03-06T12:52:08.882Z,11.47
2023-03-06T12:54:39.944Z,10.83
2023-03-06T12:57:12.455Z,10.80
2023-03-06T12:59:47.954Z,10.37
2023-03-06T13:02:45.115Z,9.53
2023-03-06T13:06:00.925Z,9.33
2023-03-06T13:08:52.823Z,8.43
2023-03-06T13:11:42.129Z,9.60
2023-03-06T13:14:48.729Z,8.97
2023-03-06T13:17:21.200Z,9.10
2023-03-06T13:20:11.426Z,10.20
2023-03-06T13:22:39.653Z,9.17
2023-03-06T13:25:19.071Z,8.93
2023-03-06T13:27:46.779Z,7.93
2023-03-06T13:30:22.168Z,7.37
2023-03-06T13:32:52.745Z,7.07
2023-03-06T13:35:32.425Z,8.00
2023-03-06T13:38:01.128Z,6.57
2023-03-06T13:40:31.692Z,6.53
2023-03-06T13:43:08.042Z,7.27
2023-03-06T13:45:43.766Z,7.23
2023-03-06T13:48:43.114Z,7.70
2023-03-06T13:51:24.632Z,8.00
2023-03-06T13:54:21.592Z,8.77
2023-03-06T13:57:29.227Z,8.90
2023-03-06T14:00:26.398Z,9.10
2023-03-06T14:02:56.761Z,9.27
2023-03-06T14:05:25.538Z,11.27
2023-03-06T14:08:15.004Z,10.97
2023-03-06T14:10:44.881Z,9.00
2023-03-06T14:13:24.283Z,9.83
2023-03-06T14:15:54.300Z,9.90
2023-03-06T14:18:43.982Z,9.80
2023-03-06T14:21:13.513Z,11.53
2023-03-06T14:23:42.606Z,10.43
2023-03-06T14:26:19.067Z,10.67
2023-03-06T14:28:52.191Z,12.63
2023-03-06T14:31:25.606Z,10.27
2023-03-06T14:34:01.251Z,11.00
2023-03-06T14:36:34.500Z,11.37
2023-03-06T14:39:15.012Z,11.40
2023-03-06T14:41:42.251Z,10.57
2023-03-06T14:44:19.260Z,10.47
2023-03-06T14:46:57.745Z,10.93
2023-03-06T14:49:26.683Z,10.80
2023-03-06T14:52:01.828Z,10.23
2023-03-06T14:54:35.273Z,12.10
2023-03-06T14:57:12.064Z,10.13
2023-03-06T14:59:56.197Z,8.83
2023-03-06T15:02:27.989Z,9.57
2023-03-06T15:05:00.776Z,8.97
2023-03-06T15:07:33.181Z,8.97
2023-03-06T15:10:01.163Z,9.43
2023-03-06T15:12:31.390Z,8.77
2023-03-06T15:15:00.197Z,9.10
2023-03-06T15:17:27.424Z,9.23
2023-03-06T15:19:57.077Z,8.87
2023-03-06T15:22:34.514Z,8.57
2023-03-06T15:25:27.165Z,8.27
2023-03-06T15:27:57.238Z,9.43
2023-03-06T15:30:32.507Z,8.60
2023-03-06T15:33:18.019Z,9.37
2023-03-06T15:36:01.656Z,8.83
2023-03-06T15:38:40.284Z,9.27
2023-03-06T15:41:21.977Z,8.80
2023-03-06T15:43:49.462Z,8.90
2023-03-06T15:46:16.750Z,10.47
2023-03-06T15:48:59.754Z,10.53
2023-03-06T15:51:28.404Z,10.10
2023-03-06T15:54:09.916Z,9.90
2023-03-06T15:56:41.664Z,9.13
2023-03-06T15:59:24.595Z,9.87
2023-03-06T16:01:52.832Z,10.00
2023-03-06T16:04:20.277Z,8.57
2023-03-06T16:06:50.837Z,9.30
2023-03-06T16:09:18.104Z,9.03
2023-03-06T16:11:46.630Z,10.13
2023-03-06T16:14:32.292Z,9.93
2023-03-06T16:16:59.670Z,9.90
2023-03-06T16:19:27.915Z,9.63
2023-03-06T16:21:56.710Z,9.80
2023-03-06T16:24:26.174Z,9.30
2023-03-06T16:26:54.908Z,9.57
2023-03-06T16:29:25.214Z,10.23
2023-03-06T16:31:55.074Z,9.73
2023-03-06T16:34:23.219Z,11.00
2023-03-06T16:36:51.037Z,11.20
2023-03-06T16:39:21.210Z,10.03
2023-03-06T16:41:51.807Z,10.20
2023-03-06T16:44:20.206Z,10.40
2023-03-06T16:46:49.583Z,10.40
2023-03-06T16:49:22.398Z,12.27
2023-03-06T16:51:50.258Z,10.20
2023-03-06T16:54:17.978Z,11.50
2023-03-06T16:56:45.698Z,10.97
2023-03-06T16:59:13.038Z,10.50
2023-03-06T17:01:43.010Z,10.47
2023-03-06T17:04:11.032Z,10.90
2023-03-06T17:06:39.239Z,10.97
2023-03-06T17:09:07.070Z,11.43
2023-03-06T17:11:36.674Z,11.27
2023-03-06T17:14:04.292Z,11.07
2023-03-06T17:16:31.666Z,11.60
2023-03-06T17:18:59.807Z,10.03
2023-03-06T17:21:27.241Z,10.60
2023-03-06T17:23:54.576Z,13.03
2023-03-06T17:26:21.851Z,12.83
2023-03-06T17:28:49.157Z,12.53
2023-03-06T17:31:25.381Z,10.87
2023-03-06T17:33:59.814Z,12.33
2023-03-06T17:36:28.419Z,12.10
2023-03-06T17:38:57.343Z,11.97
2023-03-06T17:41:24.956Z,10.33
2023-03-06T17:43:54.872Z,11.63
2023-03-06T17:46:22.418Z,11.27
2023-03-06T17:48:49.701Z,11.50
2023-03-06T17:51:16.990Z,10.40
2023-03-06T17:53:44.300Z,11.40
2023-03-06T17:56:13.792Z,10.80
2023-03-06T17:58:41.189Z,12.03
2023-03-06T18:01:34.854Z,12.17
2023-03-06T18:04:03.780Z,14.63
2023-03-06T18:06:33.372Z,15.17
2023-03-06T18:09:01.237Z,15.87
2023-03-06T18:11:29.119Z,14.40
2023-03-06T18:13:56.812Z,13.70
2023-03-06T18:16:26.035Z,13.93
2023-03-06T18:18:55.185Z,13.77
2023-03-06T18:21:23.606Z,13.43
2023-03-06T18:23:51.233Z,14.43
2023-03-06T18:26:29.235Z,14.50
2023-03-06T18:28:58.881Z,11.67
2023-03-06T18:31:30.020Z,11.07
2023-03-06T18:34:02.208Z,10.47
2023-03-06T18:36:31.717Z,11.17
2023-03-06T18:39:00.866Z,10.07
2023-03-06T18:41:28.151Z,10.67
2023-03-06T18:43:57.514Z,10.70
2023-03-06T18:46:25.951Z,10.60
2023-03-06T18:48:54.619Z,12.53
2023-03-06T18:51:21.962Z,11.00
2023-03-06T18:53:49.398Z,10.67
2023-03-06T18:56:21.494Z,10.07
2023-03-06T18:58:50.349Z,11.03
2023-03-06T19:01:18.304Z,9.80
2023-03-06T19:03:45.799Z,10.60
2023-03-06T19:06:16.941Z,9.90
2023-03-06T19:08:44.813Z,8.77
2023-03-06T19:11:14.585Z,11.93
2023-03-06T19:13:42.067Z,9.87
2023-03-06T19:16:22.988Z,11.00
2023-03-06T19:18:50.730Z,10.87
2023-03-06T19:21:20.169Z,11.53
2023-03-06T19:23:48.637Z,10.80
2023-03-06T19:26:18.708Z,12.03
2023-03-06T19:28:47.125Z,11.20
2023-03-06T19:31:19.525Z,11.57
2023-03-06T19:33:53.116Z,12.23
2023-03-06T19:36:23.629Z,11.10
2023-03-06T19:38:54.201Z,11.03
2023-03-06T19:41:30.908Z,13.97
2023-03-06T19:43:59.996Z,10.53
2023-03-06T19:46:27.429Z,10.37
2023-03-06T19:48:56.599Z,9.83
2023-03-06T19:51:24.695Z,11.27
2023-03-06T19:53:52.988Z,10.23
2023-03-06T19:56:22.617Z,10.20
2023-03-06T19:58:50.017Z,10.53
2023-03-06T20:01:19.685Z,9.97
2023-03-06T20:03:47.159Z,10.43
2023-03-06T20:06:18.401Z,10.37
2023-03-06T20:08:46.735Z,11.20
2023-03-06T20:11:26.084Z,9.30
2023-03-06T20:13:53.616Z,10.27
2023-03-06T20:16:20.888Z,10.83
2023-03-06T20:18:48.384Z,9.20
2023-03-06T20:21:16.010Z,9.47
2023-03-06T20:23:43.351Z,9.17
2023-03-06T20:26:14.254Z,9.70
2023-03-06T20:28:42.622Z,9.43
2023-03-06T20:31:13.408Z,9.07
2023-03-06T20:33:40.806Z,9.63
2023-03-06T20:36:32.396Z,9.50
2023-03-06T20:39:00.469Z,11.13
2023-03-06T20:41:29.756Z,9.23
2023-03-06T20:43:59.643Z,8.97
2023-03-06T20:46:27.039Z,10.07
2023-03-06T20:48:55.834Z,9.97
2023-03-06T20:51:31.619Z,9.53
2023-03-06T20:54:00.885Z,10.60
2023-03-06T20:56:31.452Z,10.37
2023-03-06T20:58:58.805Z,9.33
2023-03-06T21:01:31.211Z,10.30
2023-03-06T21:04:00.783Z,9.83
2023-03-06T21:06:32.014Z,9.80
2023-03-06T21:09:01.238Z,10.63
2023-03-06T21:11:28.925Z,11.90
2023-03-06T21:13:56.756Z,10.67
2023-03-06T21:16:26.370Z,10.53
2023-03-06T21:18:58.616Z,10.93
2023-03-06T21:21:29.118Z,10.63
2023-03-06T21:23:56.614Z,10.50
2023-03-06T21:26:26.774Z,10.33
2023-03-06T21:28:56.455Z,10.40
2023-03-06T21:31:24.001Z,10.67
2023-03-06T21:33:51.688Z,9.90
2023-03-06T21:36:23.646Z,10.80
2023-03-06T21:38:52.353Z,10.43
2023-03-06T21:41:26.149Z,10.87
2023-03-06T21:43:58.608Z,10.60
2023-03-06T21:46:26.691Z,10.67
2023-03-06T21:48:54.587Z,11.03
2023-03-06T21:51:26.018Z,10.40
2023-03-06T21:53:54.183Z,11.80
2023-03-06T21:56:25.300Z,12.97
2023-03-06T21:58:53.091Z,10.77
2023-03-06T22:01:23.454Z,11.90
2023-03-06T22:03:51.063Z,12.37
2023-03-06T22:06:22.143Z,10.53
2023-03-06T22:08:49.674Z,11.93
2023-03-06T22:11:20.434Z,12.00
2023-03-06T22:13:48.599Z,11.87
2023-03-06T22:16:17.612Z,13.10
2023-03-06T22:18:46.264Z,11.70
2023-03-06T22:21:15.964Z,12.20
2023-03-06T22:23:43.517Z,11.43
2023-03-06T22:26:12.964Z,12.50
2023-03-06T22:28:41.373Z,12.47
2023-03-06T22:31:12.673Z,11.57
2023-03-06T22:33:40.461Z,11.70
2023-03-06T22:36:15.798Z,11.50
2023-03-06T22:38:45.377Z,11.30
2023-03-06T22:41:14.394Z,11.50
2023-03-06T22:43:42.146Z,11.43
2023-03-06T22:46:13.578Z,12.73
2023-03-06T22:48:41.158Z,11.60
2023-03-06T22:51:15.217Z,11.43
2023-03-06T22:53:43.053Z,11.13
2023-03-06T22:56:12.378Z,10.40
2023-03-06T22:58:40.345Z,11.00
2023-03-06T23:01:23.177Z,10.67
2023-03-06T23:03:52.977Z,10.33
2023-03-06T23:06:26.767Z,11.23
2023-03-06T23:08:57.413Z,9.90
2023-03-06T23:11:25.432Z,10.33
2023-03-06T23:14:12.415Z,9.57
2023-03-06T23:16:58.429Z,10.10
2023-03-06T23:19:44.199Z,9.83
2023-03-06T23:22:30.052Z,9.90
2023-03-06T23:25:15.918Z,9.37
2023-03-06T23:27:43.338Z,9.73
2023-03-06T23:30:12.006Z,8.27
2023-03-06T23:32:39.305Z,9.10
2023-03-06T23:35:07.572Z,9.27
2023-03-06T23:37:34.898Z,7.63
2023-03-06T23:40:02.188Z,7.00
2023-03-06T23:42:29.440Z,7.43
2023-03-06T23:44:56.699Z,6.33
2023-03-06T23:47:24.066Z,6.57
2023-03-06T23:49:51.228Z,5.00
2023-03-06T23:52:18.657Z,6.27
2023-03-06T23:54:49.708Z,4.40
2023-03-06T23:57:16.956Z,4.23
2023-03-06T23:59:44.436Z,3.97
